Time;durP1;ratioP1;P1;durP2;ratioP2;P2;SDS_P1;SDS_P2;PMS_P1;PMS_P2;Temp;Humidity;BMP_temperature;BMP_pressure;BME280_temperature;BME280_humidity;BME280_pressure;Samples;Min_cycle;Max_cycle;Signal;HPM_P1;HPM_P2
2021/06/05 00:00:44;;;;;;;5.95;5.35;;;;;;;;;;5033646;28;20096;-70
2021/06/05 00:03:11;;;;;;;7.68;5.10;;;;;;;;;;5049761;28;20077;-70
2021/06/05 00:05:40;;;;;;;6.78;5.78;;;;;;;;;;5033264;28;20054;-71
2021/06/05 00:08:08;;;;;;;10.35;6.50;;;;;;;;;;5049916;28;20072;-71
2021/06/05 00:10:38;;;;;;;11.02;5.65;;;;;;;;;;5033433;28;20057;-71
2021/06/05 00:13:12;;;;;;;7.53;5.47;;;;;;;;;;5016391;28;20084;-71
2021/06/05 00:15:41;;;;;;;5.78;5.05;;;;;;;;;;5034377;28;20050;-70
2021/06/05 00:18:08;;;;;;;9.15;6.10;;;;;;;;;;5033526;28;20459;-71
2021/06/05 00:20:35;;;;;;;6.57;5.78;;;;;;;;;;5031696;28;20092;-70
2021/06/05 00:23:04;;;;;;;7.00;5.63;;;;;;;;;;5049343;28;20084;-70
2021/06/05 00:25:31;;;;;;;8.65;5.25;;;;;;;;;;5016698;28;20085;-70
2021/06/05 00:27:58;;;;;;;6.00;5.40;;;;;;;;;;5045954;28;20085;-70
2021/06/05 00:30:25;;;;;;;6.90;5.50;;;;;;;;;;5013085;28;20088;-70
2021/06/05 00:32:52;;;;;;;7.13;5.55;;;;;;;;;;5013091;28;20100;-70
2021/06/05 00:35:20;;;;;;;8.15;5.30;;;;;;;;;;5018565;28;20045;-71
2021/06/05 00:37:47;;;;;;;6.72;5.20;;;;;;;;;;5049389;28;20088;-70
2021/06/05 00:40:15;;;;;;;7.72;5.20;;;;;;;;;;5032843;28;20089;-70
2021/06/05 00:42:41;;;;;;;7.15;4.85;;;;;;;;;;5033776;28;20049;-70
2021/06/05 00:45:11;;;;;;;6.30;4.50;;;;;;;;;;5032446;28;20053;-70
2021/06/05 00:47:37;;;;;;;4.97;3.90;;;;;;;;;;5049259;28;20087;-70
2021/06/05 00:50:05;;;;;;;6.72;3.50;;;;;;;;;;5048991;28;20510;-70
2021/06/05 00:52:32;;;;;;;5.03;3.33;;;;;;;;;;5033617;28;20077;-71
2021/06/05 00:54:59;;;;;;;4.80;2.80;;;;;;;;;;5031626;28;20491;-70
2021/06/05 00:57:25;;;;;;;3.30;2.95;;;;;;;;;;5031862;28;20488;-70
2021/06/05 00:59:52;;;;;;;2.75;2.03;;;;;;;;;;5032416;28;20088;-70
2021/06/05 01:02:18;;;;;;;3.47;1.75;;;;;;;;;;5015923;28;20068;-70
2021/06/05 01:04:45;;;;;;;2.40;1.60;;;;;;;;;;5048692;28;20053;-70
2021/06/05 01:07:28;;;;;;;3.95;2.25;;;;;;;;;;5032184;28;20041;-70
2021/06/05 01:10:05;;;;;;;2.45;1.30;;;;;;;;;;5028892;28;20088;-71
2021/06/05 01:12:48;;;;;;;4.00;1.40;;;;;;;;;;5032352;28;20096;-70
2021/06/05 01:15:27;;;;;;;1.48;1.20;;;;;;;;;;5033356;28;20095;-70
2021/06/05 01:17:57;;;;;;;2.05;1.10;;;;;;;;;;5032115;28;20502;-70
2021/06/05 01:20:46;;;;;;;2.67;1.15;;;;;;;;;;5032110;28;20041;-70
2021/06/05 01:23:16;;;;;;;4.60;1.75;;;;;;;;;;5017516;28;20093;-70
2021/06/05 01:25:53;;;;;;;2.60;1.15;;;;;;;;;;5033152;28;20080;-70
2021/06/05 01:28:54;;;;;;;2.53;1.08;;;;;;;;;;5031832;28;20049;-70
2021/06/05 01:31:25;;;;;;;4.85;1.33;;;;;;;;;;5032951;28;20077;-70
2021/06/05 01:33:53;;;;;;;1.67;1.25;;;;;;;;;;5031001;28;20050;-70
2021/06/05 01:36:20;;;;;;;1.52;1.00;;;;;;;;;;5031880;28;20516;-70
2021/06/05 01:38:51;;;;;;;2.45;1.20;;;;;;;;;;5031862;28;20467;-70
2021/06/05 01:41:18;;;;;;;2.22;1.30;;;;;;;;;;5031513;28;20543;-70
2021/06/05 01:43:45;;;;;;;3.53;1.83;;;;;;;;;;5031408;28;20106;-70
2021/06/05 01:46:12;;;;;;;1.30;1.02;;;;;;;;;;5015183;28;20149;-70
2021/06/05 01:48:38;;;;;;;1.83;1.25;;;;;;;;;;5031502;28;20099;-71
2021/06/05 01:51:09;;;;;;;2.33;1.55;;;;;;;;;;5031401;28;20076;-70
2021/06/05 01:53:39;;;;;;;5.32;1.08;;;;;;;;;;5031347;28;20096;-70
2021/06/05 01:56:12;;;;;;;1.77;1.30;;;;;;;;;;5047693;28;20081;-70
2021/06/05 01:58:38;;;;;;;2.05;1.00;;;;;;;;;;5031532;28;20045;-70
2021/06/05 02:01:05;;;;;;;1.80;1.20;;;;;;;;;;5014958;28;20180;-70
2021/06/05 02:03:32;;;;;;;5.50;1.45;;;;;;;;;;5047474;28;20084;-70
2021/06/05 02:05:59;;;;;;;2.67;1.35;;;;;;;;;;5047632;28;20065;-70
2021/06/05 02:08:27;;;;;;;2.17;1.13;;;;;;;;;;5032187;28;20092;-70
2021/06/05 02:11:12;;;;;;;1.70;1.25;;;;;;;;;;5047510;28;20140;-70
2021/06/05 02:13:45;;;;;;;2.63;0.85;;;;;;;;;;5030743;28;20084;-70
2021/06/05 02:16:30;;;;;;;3.35;1.35;;;;;;;;;;5015332;28;20111;-70
2021/06/05 02:19:00;;;;;;;2.30;1.10;;;;;;;;;;5015479;28;20492;-70
2021/06/05 02:21:29;;;;;;;1.20;0.95;;;;;;;;;;5015022;28;20076;-70
2021/06/05 02:24:01;;;;;;;3.20;1.15;;;;;;;;;;5014495;28;20107;-70
2021/06/05 02:26:28;;;;;;;2.08;1.00;;;;;;;;;;5031963;28;20045;-70
2021/06/05 02:29:15;;;;;;;2.20;1.00;;;;;;;;;;5017218;28;20136;-70
2021/06/05 02:31:41;;;;;;;1.83;0.90;;;;;;;;;;5014676;28;20128;-70
2021/06/05 02:34:11;;;;;;;1.27;0.70;;;;;;;;;;5014074;28;20140;-70
2021/06/05 02:36:42;;;;;;;1.42;1.08;;;;;;;;;;5047132;28;20500;-70
2021/06/05 02:39:09;;;;;;;0.88;0.88;;;;;;;;;;5030839;28;20077;-70
2021/06/05 02:41:36;;;;;;;1.92;1.13;;;;;;;;;;5014351;28;20088;-70
2021/06/05 02:44:03;;;;;;;2.88;1.20;;;;;;;;;;5026972;28;20089;-70
2021/06/05 02:46:33;;;;;;;1.20;1.08;;;;;;;;;;5011978;28;20465;-70
2021/06/05 02:49:03;;;;;;;3.90;1.42;;;;;;;;;;5010941;28;20406;-70
2021/06/05 02:51:34;;;;;;;1.05;0.90;;;;;;;;;;5010751;28;20476;-70
2021/06/05 02:54:02;;;;;;;1.75;1.00;;;;;;;;;;5018016;28;20107;-70
2021/06/05 02:56:29;;;;;;;2.95;1.95;;;;;;;;;;5031558;28;20100;-70
2021/06/05 02:58:55;;;;;;;2.03;1.65;;;;;;;;;;5030604;28;20085;-70
2021/06/05 03:01:22;;;;;;;2.25;1.23;;;;;;;;;;5030348;28;20088;-70
2021/06/05 03:03:49;;;;;;;3.03;1.13;;;;;;;;;;5013960;28;20049;-70
2021/06/05 03:06:15;;;;;;;3.03;2.38;;;;;;;;;;5031778;28;20084;-70
2021/06/05 03:08:43;;;;;;;3.40;2.28;;;;;;;;;;5014128;28;20088;-70
2021/06/05 03:11:17;;;;;;;5.28;1.63;;;;;;;;;;5031531;28;20095;-70
2021/06/05 03:13:43;;;;;;;1.65;1.33;;;;;;;;;;5030175;28;20424;-70
2021/06/05 03:16:12;;;;;;;1.95;1.42;;;;;;;;;;5046672;28;20096;-70
2021/06/05 03:18:39;;;;;;;2.40;1.88;;;;;;;;;;5030397;28;20280;-70
2021/06/05 03:21:08;;;;;;;4.72;2.15;;;;;;;;;;5013979;28;20092;-70
2021/06/05 03:23:35;;;;;;;2.30;1.20;;;;;;;;;;5013975;28;20081;-70
2021/06/05 03:26:02;;;;;;;4.20;1.17;;;;;;;;;;5030207;28;20512;-70
2021/06/05 03:28:30;;;;;;;3.20;1.30;;;;;;;;;;5014048;28;20085;-70
2021/06/05 03:30:57;;;;;;;3.53;0.93;;;;;;;;;;5030200;28;20088;-70
2021/06/05 03:33:24;;;;;;;1.65;1.00;;;;;;;;;;5029731;28;20128;-70
2021/06/05 03:35:56;;;;;;;2.25;1.25;;;;;;;;;;5015069;28;20049;-70
2021/06/05 03:38:24;;;;;;;2.63;1.10;;;;;;;;;;5030020;28;20077;-71
2021/06/05 03:40:52;;;;;;;2.15;1.00;;;;;;;;;;5014090;28;20095;-70
2021/06/05 03:43:20;;;;;;;2.22;0.95;;;;;;;;;;5029789;28;20085;-70
2021/06/05 03:45:46;;;;;;;2.33;1.10;;;;;;;;;;5029847;28;20103;-70
2021/06/05 03:48:13;;;;;;;2.03;1.00;;;;;;;;;;5029942;28;20084;-70
2021/06/05 03:50:45;;;;;;;1.83;1.48;;;;;;;;;;5031225;28;20116;-70
2021/06/05 03:53:12;;;;;;;5.03;1.35;;;;;;;;;;5013582;28;20081;-70
2021/06/05 03:55:39;;;;;;;1.40;1.02;;;;;;;;;;5029954;28;20089;-70
2021/06/05 03:58:06;;;;;;;4.55;1.23;;;;;;;;;;5034660;28;20045;-70
2021/06/05 04:00:36;;;;;;;6.38;2.08;;;;;;;;;;5033620;28;20088;-70
2021/06/05 04:03:03;;;;;;;1.48;0.95;;;;;;;;;;5017227;28;20527;-70
2021/06/05 04:05:31;;;;;;;6.40;2.00;;;;;;;;;;5033383;28;20487;-70
2021/06/05 04:07:58;;;;;;;2.65;1.98;;;;;;;;;;5017335;28;20084;-70
2021/06/05 04:10:25;;;;;;;5.75;2.40;;;;;;;;;;5017118;28;20132;-70
2021/06/05 04:12:53;;;;;;;4.03;3.00;;;;;;;;;;5034512;28;20497;-70
2021/06/05 04:15:25;;;;;;;4.30;2.65;;;;;;;;;;5016756;28;20558;-70
2021/06/05 04:18:07;;;;;;;1.92;1.83;;;;;;;;;;5033145;28;20124;-70
2021/06/05 04:20:36;;;;;;;3.05;1.90;;;;;;;;;;5033132;28;20492;-70
2021/06/05 04:23:02;;;;;;;3.03;1.73;;;;;;;;;;5034185;28;20519;-70
2021/06/05 04:25:29;;;;;;;4.03;1.60;;;;;;;;;;5032574;28;20128;-70
2021/06/05 04:27:56;;;;;;;4.65;1.67;;;;;;;;;;5034282;28;20077;-70
2021/06/05 04:30:25;;;;;;;2.95;1.60;;;;;;;;;;5016532;28;20104;-70
2021/06/05 04:32:52;;;;;;;4.93;1.63;;;;;;;;;;5032876;28;20085;-70
2021/06/05 04:35:20;;;;;;;1.85;1.50;;;;;;;;;;5048991;28;20570;-70
2021/06/05 04:37:47;;;;;;;3.00;1.50;;;;;;;;;;5032922;28;20088;-70
2021/06/05 04:40:14;;;;;;;2.20;1.60;;;;;;;;;;5033964;28;20076;-70
2021/06/05 04:42:41;;;;;;;1.92;1.55;;;;;;;;;;5032627;28;20096;-70
2021/06/05 04:45:08;;;;;;;4.55;1.60;;;;;;;;;;5032597;28;20057;-70
2021/06/05 04:47:35;;;;;;;2.25;1.50;;;;;;;;;;5033996;28;20103;-70
2021/06/05 04:50:04;;;;;;;2.28;1.80;;;;;;;;;;5032566;28;20132;-70
2021/06/05 04:52:30;;;;;;;2.47;1.40;;;;;;;;;;5032544;28;20080;-70
2021/06/05 04:54:57;;;;;;;2.53;1.20;;;;;;;;;;5033601;28;20089;-70
2021/06/05 04:57:23;;;;;;;3.38;1.80;;;;;;;;;;5033542;28;20098;-70
2021/06/05 04:59:50;;;;;;;2.55;1.33;;;;;;;;;;5033647;28;20072;-70
2021/06/05 05:02:16;;;;;;;4.10;1.38;;;;;;;;;;5033585;28;20088;-70
2021/06/05 05:04:43;;;;;;;2.80;1.48;;;;;;;;;;5033499;28;20049;-70
2021/06/05 05:07:11;;;;;;;1.38;1.10;;;;;;;;;;5031650;28;20132;-70
2021/06/05 05:09:38;;;;;;;2.60;1.70;;;;;;;;;;5031925;28;20049;-70
2021/06/05 05:12:06;;;;;;;2.28;1.08;;;;;;;;;;5032116;28;20080;-70
2021/06/05 05:14:33;;;;;;;2.70;1.25;;;;;;;;;;5048538;28;20060;-70
2021/06/05 05:17:01;;;;;;;2.65;1.50;;;;;;;;;;5033338;28;20076;-70
2021/06/05 05:19:28;;;;;;;1.42;1.30;;;;;;;;;;5032125;28;20056;-70
2021/06/05 05:21:55;;;;;;;2.20;1.23;;;;;;;;;;5031961;28;20057;-70
2021/06/05 05:24:21;;;;;;;2.33;1.52;;;;;;;;;;5033059;28;20507;-70
2021/06/05 05:26:48;;;;;;;3.58;1.40;;;;;;;;;;5048468;28;20085;-70
2021/06/05 05:29:14;;;;;;;2.22;1.50;;;;;;;;;;5033059;28;20050;-70
2021/06/05 05:31:41;;;;;;;1.98;1.00;;;;;;;;;;5030436;28;20049;-70
2021/06/05 05:34:08;;;;;;;1.65;1.10;;;;;;;;;;5031721;28;20435;-70
2021/06/05 05:36:36;;;;;;;4.38;1.20;;;;;;;;;;5033081;28;20077;-70
2021/06/05 05:39:08;;;;;;;2.97;1.15;;;;;;;;;;5032919;28;20089;-70
2021/06/05 05:41:35;;;;;;;1.77;1.10;;;;;;;;;;5015361;28;20053;-70
2021/06/05 05:44:02;;;;;;;1.30;1.20;;;;;;;;;;5032785;28;20319;-70
2021/06/05 05:46:28;;;;;;;1.67;1.42;;;;;;;;;;5031707;28;20088;-70
2021/06/05 05:48:55;;;;;;;5.00;1.20;;;;;;;;;;5031508;28;20120;-70
2021/06/05 05:51:23;;;;;;;4.20;0.98;;;;;;;;;;5031540;28;20484;-70
2021/06/05 05:53:51;;;;;;;2.42;1.13;;;;;;;;;;5032511;28;20085;-70
2021/06/05 05:56:19;;;;;;;2.85;1.23;;;;;;;;;;5031344;28;20109;-70
2021/06/05 05:58:48;;;;;;;2.70;1.20;;;;;;;;;;5031241;28;20077;-70
2021/06/05 06:01:19;;;;;;;2.78;1.30;;;;;;;;;;5032371;28;20512;-70
2021/06/05 06:03:49;;;;;;;2.67;1.23;;;;;;;;;;5031077;28;20049;-70
2021/06/05 06:06:15;;;;;;;1.55;1.10;;;;;;;;;;5032679;28;20056;-69
2021/06/05 06:08:43;;;;;;;2.20;1.40;;;;;;;;;;5031055;28;20496;-70
2021/06/05 06:11:10;;;;;;;2.97;1.60;;;;;;;;;;5030964;28;20543;-70
2021/06/05 06:13:37;;;;;;;3.50;1.15;;;;;;;;;;5032034;28;20061;-70
2021/06/05 06:16:08;;;;;;;2.30;1.17;;;;;;;;;;5047528;28;20100;-69
2021/06/05 06:18:36;;;;;;;2.95;1.27;;;;;;;;;;5030684;28;20046;-70
2021/06/05 06:21:07;;;;;;;3.88;1.77;;;;;;;;;;5031029;28;20492;-70
2021/06/05 06:23:36;;;;;;;3.90;1.95;;;;;;;;;;5029993;28;20045;-70
2021/06/05 06:26:06;;;;;;;3.08;1.88;;;;;;;;;;5014553;28;20104;-70
2021/06/05 06:28:35;;;;;;;5.93;2.03;;;;;;;;;;5029038;28;20455;-70
2021/06/05 06:31:03;;;;;;;3.20;1.73;;;;;;;;;;5029080;28;20582;-71
2021/06/05 06:33:30;;;;;;;2.33;1.48;;;;;;;;;;5028198;28;20132;-70
2021/06/05 06:35:57;;;;;;;2.72;1.40;;;;;;;;;;5028767;28;20049;-70
2021/06/05 06:38:36;;;;;;;3.55;1.52;;;;;;;;;;5028299;28;20045;-70
2021/06/05 06:41:11;;;;;;;2.25;1.33;;;;;;;;;;5028451;28;20440;-70
2021/06/05 06:43:38;;;;;;;1.52;1.30;;;;;;;;;;5012467;28;20083;-70
2021/06/05 06:46:14;;;;;;;3.85;1.15;;;;;;;;;;5025118;28;20425;-70
2021/06/05 06:48:41;;;;;;;3.10;1.10;;;;;;;;;;5025322;28;20112;-70
2021/06/05 06:51:08;;;;;;;2.75;1.48;;;;;;;;;;5009826;28;20115;-68
2021/06/05 06:53:36;;;;;;;2.53;1.30;;;;;;;;;;5009783;28;20061;-69
2021/06/05 06:56:05;;;;;;;3.15;1.40;;;;;;;;;;5024352;28;20050;-68
2021/06/05 06:58:32;;;;;;;3.47;1.60;;;;;;;;;;5010034;28;20133;-69
2021/06/05 07:00:59;;;;;;;3.78;1.60;;;;;;;;;;5025248;28;20049;-68
2021/06/05 07:03:26;;;;;;;2.53;1.25;;;;;;;;;;5024669;28;20060;-68
2021/06/05 07:05:52;;;;;;;4.07;1.25;;;;;;;;;;5014262;28;20080;-68
2021/06/05 07:08:25;;;;;;;2.05;1.10;;;;;;;;;;5027783;28;20487;-69
2021/06/05 07:10:54;;;;;;;1.30;0.90;;;;;;;;;;5044789;28;20057;-68
2021/06/05 07:13:22;;;;;;;2.00;1.10;;;;;;;;;;5011894;28;20088;-68
2021/06/05 07:15:48;;;;;;;2.50;1.30;;;;;;;;;;5028208;28;20136;-69
2021/06/05 07:18:21;;;;;;;2.22;1.05;;;;;;;;;;5011753;28;20054;-68
2021/06/05 07:20:49;;;;;;;2.67;1.67;;;;;;;;;;5011722;28;20088;-69
2021/06/05 07:23:20;;;;;;;4.22;1.70;;;;;;;;;;5044215;28;20081;-69
2021/06/05 07:25:48;;;;;;;1.80;1.08;;;;;;;;;;5029300;28;20088;-69
2021/06/05 07:28:44;;;;;;;2.92;1.30;;;;;;;;;;5029485;28;20077;-69
2021/06/05 07:31:16;;;;;;;1.52;1.25;;;;;;;;;;5046250;28;20107;-68
2021/06/05 07:33:44;;;;;;;1.60;1.35;;;;;;;;;;5033920;28;20045;-69
2021/06/05 07:36:30;;;;;;;2.75;1.20;;;;;;;;;;5045930;28;20085;-68
2021/06/05 07:38:57;;;;;;;2.00;1.20;;;;;;;;;;5041551;28;20492;-71
2021/06/05 07:41:23;;;;;;;1.83;1.20;;;;;;;;;;5033731;28;20081;-71
2021/06/05 07:43:50;;;;;;;1.98;1.27;;;;;;;;;;5032255;28;20089;-70
2021/06/05 07:46:17;;;;;;;1.95;1.35;;;;;;;;;;5016911;28;20077;-69
2021/06/05 07:48:43;;;;;;;2.13;1.23;;;;;;;;;;5033861;28;20052;-69
2021/06/05 07:51:10;;;;;;;3.67;1.58;;;;;;;;;;5033564;28;20050;-69
2021/06/05 07:53:37;;;;;;;2.47;1.48;;;;;;;;;;5034464;28;20599;-69
2021/06/05 07:56:04;;;;;;;2.30;1.30;;;;;;;;;;5034672;28;20076;-70
2021/06/05 07:58:31;;;;;;;2.20;1.30;;;;;;;;;;5033336;28;20046;-69
2021/06/05 08:00:57;;;;;;;3.55;1.20;;;;;;;;;;5033352;28;20053;-71
2021/06/05 08:03:24;;;;;;;1.65;1.30;;;;;;;;;;5033104;28;20053;-71
2021/06/05 08:05:51;;;;;;;3.33;1.50;;;;;;;;;;5033568;28;20484;-71
2021/06/05 08:08:17;;;;;;;1.52;1.40;;;;;;;;;;5016940;28;20077;-69
2021/06/05 08:10:44;;;;;;;2.13;1.50;;;;;;;;;;5017086;28;20053;-70
2021/06/05 08:13:11;;;;;;;1.90;1.50;;;;;;;;;;5032914;28;20053;-70
2021/06/05 08:15:41;;;;;;;4.95;2.47;;;;;;;;;;5016835;28;20080;-70
2021/06/05 08:18:08;;;;;;;2.95;1.88;;;;;;;;;;5033018;28;20129;-69
2021/06/05 08:20:43;;;;;;;3.20;1.58;;;;;;;;;;5032840;28;20111;-70
2021/06/05 08:23:11;;;;;;;3.50;1.60;;;;;;;;;;5031329;28;20077;-70
2021/06/05 08:25:37;;;;;;;1.95;1.52;;;;;;;;;;5014807;28;20129;-70
2021/06/05 08:28:07;;;;;;;3.17;1.35;;;;;;;;;;5048398;28;20056;-70
2021/06/05 08:30:40;;;;;;;2.60;1.52;;;;;;;;;;5033086;28;20089;-71
2021/06/05 08:33:07;;;;;;;3.10;1.20;;;;;;;;;;5033688;28;20049;-71
2021/06/05 08:35:35;;;;;;;1.63;1.20;;;;;;;;;;5032843;28;20484;-71
2021/06/05 08:38:03;;;;;;;2.70;1.73;;;;;;;;;;5029035;28;20088;-71
2021/06/05 08:40:58;;;;;;;2.63;1.77;;;;;;;;;;5013299;28;20056;-71
2021/06/05 08:43:28;;;;;;;3.47;1.48;;;;;;;;;;5013199;28;20077;-71
2021/06/05 08:45:55;;;;;;;3.00;1.50;;;;;;;;;;5015690;28;20104;-71
2021/06/05 08:48:21;;;;;;;2.38;1.38;;;;;;;;;;5032848;28;20091;-71
2021/06/05 08:50:48;;;;;;;3.10;1.42;;;;;;;;;;5032750;28;20099;-69
2021/06/05 08:53:17;;;;;;;1.58;1.25;;;;;;;;;;5049116;28;20489;-69
2021/06/05 08:55:47;;;;;;;3.28;1.40;;;;;;;;;;5016680;28;20053;-70
2021/06/05 08:58:39;;;;;;;1.40;1.25;;;;;;;;;;4996865;28;20046;-70
2021/06/05 09:01:22;;;;;;;2.35;1.30;;;;;;;;;;5012906;28;20072;-70
2021/06/05 09:03:58;;;;;;;3.60;1.77;;;;;;;;;;5012530;28;20073;-71
2021/06/05 09:06:35;;;;;;;2.65;1.02;;;;;;;;;;4996694;28;20176;-71
2021/06/05 09:09:05;;;;;;;4.18;1.65;;;;;;;;;;5012573;28;20085;-72
2021/06/05 09:11:32;;;;;;;2.42;1.08;;;;;;;;;;5012899;28;20057;-71
2021/06/05 09:13:59;;;;;;;1.17;1.02;;;;;;;;;;5011988;28;20406;-72
2021/06/05 09:16:38;;;;;;;1.45;1.02;;;;;;;;;;5020880;28;20076;-72
2021/06/05 09:19:08;;;;;;;2.53;1.15;;;;;;;;;;5033114;28;20037;-72
2021/06/05 09:21:48;;;;;;;2.67;0.90;;;;;;;;;;5032745;28;20052;-72
2021/06/05 09:24:26;;;;;;;1.65;1.20;;;;;;;;;;5027455;28;20045;-72
2021/06/05 09:27:34;;;;;;;1.30;1.00;;;;;;;;;;5030483;28;20076;-72
2021/06/05 09:30:06;;;;;;;1.48;1.00;;;;;;;;;;4937272;29;20123;-71
2021/06/05 09:32:55;;;;;;;1.88;1.10;;;;;;;;;;5020325;28;20041;-72
2021/06/05 09:38:11;;;;;;;4.47;1.42;;;;;;;;;;4960231;29;20068;-71
2021/06/05 09:40:38;;;;;;;3.10;0.82;;;;;;;;;;4962207;29;20074;-72
2021/06/05 09:43:07;;;;;;;2.63;1.10;;;;;;;;;;4965689;28;20066;-72
2021/06/05 09:45:37;;;;;;;3.60;1.00;;;;;;;;;;4962435;28;20096;-72
2021/06/05 09:48:41;;;;;;;2.45;1.10;;;;;;;;;;4985963;28;20075;-72
2021/06/05 09:51:33;;;;;;;1.38;1.00;;;;;;;;;;4976211;28;20055;-72
2021/06/05 09:54:00;;;;;;;;;;;;;;;;;;4979676;28;20051;-73
2021/06/05 09:56:33;;;;;;;1.48;1.00;;;;;;;;;;4980365;28;19930;-73
2021/06/05 09:59:19;;;;;;;;;;;;;;;;;;4977352;28;20121;-72
2021/06/05 10:02:00;;;;;;;4.70;1.10;;;;;;;;;;4980618;28;19922;-71
2021/06/05 10:04:28;;;;;;;1.88;1.23;;;;;;;;;;4989096;28;20505;-72
2021/06/05 10:06:57;;;;;;;1.52;1.00;;;;;;;;;;4988998;28;20050;-72
2021/06/05 10:09:24;;;;;;;3.30;1.10;;;;;;;;;;4974217;28;20445;-71
2021/06/05 10:12:06;;;;;;;3.15;1.38;;;;;;;;;;4976311;28;20516;-72
2021/06/05 10:14:45;;;;;;;1.42;1.33;;;;;;;;;;4956944;29;20078;-72
2021/06/05 10:17:16;;;;;;;2.42;0.80;;;;;;;;;;4969274;28;20482;-72
2021/06/05 10:19:45;;;;;;;2.17;0.80;;;;;;;;;;4969161;28;20075;-71
2021/06/05 10:22:12;;;;;;;1.05;0.90;;;;;;;;;;4966459;28;20097;-71
2021/06/05 10:25:00;;;;;;;2.28;0.88;;;;;;;;;;4970763;28;20132;-71
2021/06/05 10:27:30;;;;;;;1.65;1.00;;;;;;;;;;4970469;28;20089;-70
2021/06/05 10:30:08;;;;;;;1.88;0.90;;;;;;;;;;4954952;28;20133;-71
2021/06/05 10:32:40;;;;;;;1.65;1.08;;;;;;;;;;4971653;28;20063;-70
2021/06/05 10:35:08;;;;;;;1.07;1.00;;;;;;;;;;4970004;28;20060;-70
2021/06/05 10:37:37;;;;;;;2.67;0.88;;;;;;;;;;4970330;28;20082;-71
2021/06/05 10:40:18;;;;;;;2.17;1.10;;;;;;;;;;4954527;28;20043;-71
2021/06/05 10:42:47;;;;;;;2.83;0.93;;;;;;;;;;4971402;28;20078;-71
2021/06/05 10:45:17;;;;;;;2.60;1.13;;;;;;;;;;4936066;29;20121;-70
2021/06/05 10:47:59;;;;;;;1.38;0.95;;;;;;;;;;4958500;28;20141;-70
2021/06/05 10:50:36;;;;;;;3.25;0.80;;;;;;;;;;4982039;28;20563;-71
2021/06/05 10:53:11;;;;;;;1.23;0.70;;;;;;;;;;4960865;28;20138;-79
2021/06/05 10:55:49;;;;;;;1.88;1.02;;;;;;;;;;4985729;28;20097;-71
2021/06/05 10:58:24;;;;;;;1.40;0.80;;;;;;;;;;4954833;28;20082;-69
2021/06/05 11:00:56;;;;;;;1.15;0.88;;;;;;;;;;4967932;28;20089;-73
2021/06/05 11:03:26;;;;;;;;;;;;;;;;;;4986061;28;20113;-72
2021/06/05 11:06:14;;;;;;;1.40;0.98;;;;;;;;;;4972456;28;19930;-70
2021/06/05 11:08:53;;;;;;;1.10;1.00;;;;;;;;;;4971463;28;20082;-73
2021/06/05 11:11:42;;;;;;;2.22;1.10;;;;;;;;;;4972995;28;20097;-74
2021/06/05 11:14:35;;;;;;;2.95;1.30;;;;;;;;;;4958062;28;20509;-75
2021/06/05 11:17:05;;;;;;;3.08;1.35;;;;;;;;;;4966871;28;20113;-73
2021/06/05 11:19:43;;;;;;;1.42;1.23;;;;;;;;;;4957173;28;20407;-72
2021/06/05 11:22:19;;;;;;;1.60;1.35;;;;;;;;;;4957438;28;20078;-72
2021/06/05 11:25:09;;;;;;;1.70;1.00;;;;;;;;;;4974308;28;20046;-72
2021/06/05 11:27:36;;;;;;;1.67;1.20;;;;;;;;;;4939138;28;20142;-72
2021/06/05 11:30:21;;;;;;;1.95;1.10;;;;;;;;;;4975033;28;20054;-74
2021/06/05 11:32:52;;;;;;;2.65;1.20;;;;;;;;;;4969205;28;20094;-73
2021/06/05 11:35:36;;;;;;;2.05;1.15;;;;;;;;;;4973313;28;20043;-72
2021/06/05 11:38:06;;;;;;;2.10;1.15;;;;;;;;;;4974992;28;20051;-71
2021/06/05 11:41:07;;;;;;;1.58;1.30;;;;;;;;;;4973878;28;20049;-75
2021/06/05 11:43:34;;;;;;;2.92;1.67;;;;;;;;;;4937713;28;20133;-74
2021/06/05 11:46:09;;;;;;;3.47;1.30;;;;;;;;;;4971774;28;20086;-74
2021/06/05 11:48:41;;;;;;;1.70;1.35;;;;;;;;;;4972555;28;20502;-74
2021/06/05 11:51:21;;;;;;;1.88;1.45;;;;;;;;;;4972471;28;20187;-74
2021/06/05 11:53:52;;;;;;;1.58;1.00;;;;;;;;;;4968994;28;20735;-74
2021/06/05 11:56:29;;;;;;;1.58;1.33;;;;;;;;;;4954671;28;20059;-72
2021/06/05 11:59:05;;;;;;;2.47;1.23;;;;;;;;;;4973032;28;20138;-74
2021/06/05 12:01:33;;;;;;;1.90;0.95;;;;;;;;;;4971840;28;20062;-73
2021/06/05 12:04:03;;;;;;;1.15;1.05;;;;;;;;;;4970442;28;20282;-72
2021/06/05 12:06:34;;;;;;;2.80;1.30;;;;;;;;;;4969864;28;20126;-73
2021/06/05 12:09:15;;;;;;;1.67;1.08;;;;;;;;;;4972107;28;20453;-73
2021/06/05 12:11:46;;;;;;;2.53;1.55;;;;;;;;;;4971028;28;20050;-73
2021/06/05 12:14:24;;;;;;;3.08;1.73;;;;;;;;;;4987132;28;20205;-73
2021/06/05 12:16:56;;;;;;;2.47;1.60;;;;;;;;;;4970436;28;20750;-72
2021/06/05 12:19:29;;;;;;;3.65;1.40;;;;;;;;;;4984360;28;20097;-72
2021/06/05 12:22:01;;;;;;;;;;;;;;;;;;4968125;28;20194;-72
2021/06/05 12:24:29;;;;;;;3.22;1.90;;;;;;;;;;4970408;28;19925;-73
2021/06/05 12:26:59;;;;;;;1.85;1.50;;;;;;;;;;4972330;28;20580;-72
2021/06/05 12:29:31;;;;;;;2.58;1.30;;;;;;;;;;4969972;28;20059;-73
2021/06/05 12:31:58;;;;;;;2.38;1.23;;;;;;;;;;4970804;28;20089;-72
2021/06/05 12:34:31;;;;;;;2.83;1.35;;;;;;;;;;4953960;28;20094;-72
2021/06/05 12:37:00;;;;;;;3.60;1.48;;;;;;;;;;4971878;28;20094;-72
2021/06/05 12:39:27;;;;;;;1.60;1.42;;;;;;;;;;4969545;28;20050;-73
2021/06/05 12:41:54;;;;;;;2.63;1.45;;;;;;;;;;4970974;28;20094;-73
2021/06/05 12:44:24;;;;;;;1.02;0.88;;;;;;;;;;4971151;28;20749;-72
2021/06/05 12:46:51;;;;;;;4.40;1.88;;;;;;;;;;4971150;28;20129;-72
2021/06/05 12:49:26;;;;;;;2.22;1.23;;;;;;;;;;4967030;28;20051;-72
2021/06/05 12:51:55;;;;;;;1.40;1.23;;;;;;;;;;4988107;28;20137;-72
2021/06/05 12:54:32;;;;;;;0.80;0.80;;;;;;;;;;4972582;28;20426;-73
2021/06/05 12:57:25;;;;;;;1.00;0.80;;;;;;;;;;4974255;28;20085;-72
2021/06/05 12:59:52;;;;;;;1.88;0.68;;;;;;;;;;4973296;28;20078;-72
2021/06/05 13:02:30;;;;;;;2.60;1.13;;;;;;;;;;4972011;28;20085;-72
2021/06/05 13:05:21;;;;;;;1.10;0.90;;;;;;;;;;4973875;28;20093;-72
2021/06/05 13:07:49;;;;;;;8.93;0.90;;;;;;;;;;4972519;28;20560;-72
2021/06/05 13:10:32;;;;;;;1.08;0.80;;;;;;;;;;4973709;28;20093;-72
2021/06/05 13:13:18;;;;;;;;;;;;;;;;;;4972996;28;20090;-72
2021/06/05 13:15:56;;;;;;;1.45;0.90;;;;;;;;;;4973578;28;19969;-72
2021/06/05 13:18:35;;;;;;;3.25;0.80;;;;;;;;;;4973404;28;20050;-72
2021/06/05 13:21:23;;;;;;;0.88;0.80;;;;;;;;;;4972525;28;20050;-72
2021/06/05 13:23:54;;;;;;;1.50;0.60;;;;;;;;;;4970417;28;20074;-72
2021/06/05 13:26:40;;;;;;;2.83;0.90;;;;;;;;;;4956568;28;20086;-72
2021/06/05 13:29:29;;;;;;;1.38;0.82;;;;;;;;;;4972316;28;20054;-72
2021/06/05 13:32:06;;;;;;;1.73;1.10;;;;;;;;;;4973127;28;20158;-72
2021/06/05 13:34:38;;;;;;;1.25;0.80;;;;;;;;;;4972549;28;20055;-71
2021/06/05 13:37:15;;;;;;;0.70;0.63;;;;;;;;;;4971912;28;20081;-71
2021/06/05 13:39:42;;;;;;;1.50;0.75;;;;;;;;;;4970527;28;20078;-72
2021/06/05 13:42:08;;;;;;;1.30;0.90;;;;;;;;;;4972944;28;20689;-71
2021/06/05 13:44:38;;;;;;;2.33;0.90;;;;;;;;;;4972978;28;20081;-71
2021/06/05 13:47:11;;;;;;;3.72;1.00;;;;;;;;;;4971238;28;20077;-71
2021/06/05 13:49:38;;;;;;;1.67;0.88;;;;;;;;;;4973025;28;20054;-72
2021/06/05 13:52:13;;;;;;;1.90;1.20;;;;;;;;;;4972983;28;20051;-70
2021/06/05 13:54:40;;;;;;;1.55;1.02;;;;;;;;;;4971942;28;20046;-71
2021/06/05 13:57:07;;;;;;;3.50;1.35;;;;;;;;;;4972587;28;20645;-71
2021/06/05 13:59:34;;;;;;;1.98;1.00;;;;;;;;;;4972960;28;20125;-71
2021/06/05 14:02:01;;;;;;;1.05;1.00;;;;;;;;;;4972439;28;20086;-71
2021/06/05 14:04:27;;;;;;;0.85;0.85;;;;;;;;;;4970774;28;20475;-71
2021/06/05 14:06:54;;;;;;;2.22;1.33;;;;;;;;;;4972717;28;20082;-70
2021/06/05 14:09:20;;;;;;;2.08;1.20;;;;;;;;;;4972518;28;20470;-71
2021/06/05 14:11:47;;;;;;;1.08;0.90;;;;;;;;;;4972211;28;20515;-71
2021/06/05 14:14:15;;;;;;;1.33;1.10;;;;;;;;;;4972597;28;20528;-71
2021/06/05 14:16:43;;;;;;;1.38;1.10;;;;;;;;;;4972393;28;20043;-71
2021/06/05 14:19:09;;;;;;;2.20;1.10;;;;;;;;;;4975470;28;20138;-71
2021/06/05 14:21:37;;;;;;;3.08;0.98;;;;;;;;;;4972483;28;20127;-72
2021/06/05 14:24:04;;;;;;;7.50;1.23;;;;;;;;;;4968582;28;20137;-72
2021/06/05 14:26:31;;;;;;;2.58;1.15;;;;;;;;;;4986986;28;20050;-74
2021/06/05 14:28:57;;;;;;;4.05;1.02;;;;;;;;;;4971111;28;20074;-72
2021/06/05 14:31:24;;;;;;;2.05;1.27;;;;;;;;;;4972326;28;20422;-74
2021/06/05 14:33:53;;;;;;;1.42;1.13;;;;;;;;;;4972132;28;20134;-73
2021/06/05 14:36:21;;;;;;;2.33;1.50;;;;;;;;;;4972088;28;20083;-72
2021/06/05 14:38:48;;;;;;;4.28;1.20;;;;;;;;;;4972065;28;20098;-78
2021/06/05 14:41:15;;;;;;;3.00;1.30;;;;;;;;;;4969848;28;20103;-73
2021/06/05 14:43:42;;;;;;;4.15;1.25;;;;;;;;;;4972368;28;20392;-72
2021/06/05 14:46:11;;;;;;;3.58;1.33;;;;;;;;;;4965297;28;20101;-72
2021/06/05 14:48:38;;;;;;;3.63;1.10;;;;;;;;;;4985324;28;20058;-70
2021/06/05 14:51:06;;;;;;;5.40;1.55;;;;;;;;;;4971343;28;20078;-70
2021/06/05 14:53:33;;;;;;;4.40;0.95;;;;;;;;;;4971098;28;20046;-72
2021/06/05 14:56:01;;;;;;;1.48;0.60;;;;;;;;;;4986133;28;20054;-72
2021/06/05 14:58:29;;;;;;;1.35;0.73;;;;;;;;;;4969223;28;20054;-72
2021/06/05 15:00:58;;;;;;;1.20;0.60;;;;;;;;;;4968341;28;20183;-71
2021/06/05 15:03:27;;;;;;;1.77;0.75;;;;;;;;;;4968772;28;20046;-73
2021/06/05 15:05:55;;;;;;;1.02;0.45;;;;;;;;;;4971311;28;20109;-73
2021/06/05 15:08:22;;;;;;;2.53;0.75;;;;;;;;;;4971468;28;20426;-71
2021/06/05 15:10:48;;;;;;;1.52;0.88;;;;;;;;;;4971175;28;20146;-71